Time;durP1;ratioP1;P1;durP2;ratioP2;P2;SDS_P1;SDS_P2;PMS_P1;PMS_P2;Temp;Humidity;BMP_temperature;BMP_pressure;BME280_temperature;BME280_humidity;BME280_pressure;Samples;Min_cycle;Max_cycle;Signal;HPM_P1;HPM_P2
2021/10/02 00:45:40;;;;;;;;;;;;;;;9.62;100.00;98151.81;5036448;28;19925;-76
2021/10/02 00:48:08;;;;;;;;;;;;;;;9.51;100.00;98150.53;5019180;28;20388;-76
2021/10/02 00:50:36;;;;;;;;;;;;;;;8.77;100.00;98158.72;5018835;28;19944;-76
2021/10/02 00:53:03;;;;;;;;;;;;;;;9.07;100.00;98150.03;5036400;28;19925;-76
2021/10/02 00:55:30;;;;;;;;;;;;;;;9.57;100.00;98138.41;5002556;28;19925;-76
2021/10/02 00:57:57;;;;;;;;;;;;;;;9.48;100.00;98141.03;5036155;28;19971;-76
2021/10/02 01:00:25;;;;;;;;;;;;;;;9.46;100.00;98132.34;5002500;28;19925;-76
2021/10/02 01:02:55;;;;;;;;;;;;;;;9.04;100.00;98139.00;5002588;28;19933;-76
2021/10/02 01:05:25;;;;;;;;;;;;;;;9.60;100.00;98145.91;5018741;28;19959;-76
2021/10/02 01:08:07;;;;;;;;;;;;;;;8.77;100.00;98130.84;5036079;28;19929;-76
2021/10/02 01:10:43;;;;;;;;;;;;;;;9.34;100.00;98130.25;5018782;28;19925;-76
2021/10/02 01:13:28;;;;;;;;;;;;;;;9.79;100.00;98127.44;5035985;28;20027;-76
2021/10/02 01:16:02;;;;;;;;;;;;;;;9.81;100.00;98119.44;5002541;28;19929;-77
2021/10/02 01:18:50;;;;;;;;;;;;;;;9.90;100.00;98120.38;5036017;28;19925;-76
2021/10/02 01:21:29;;;;;;;;;;;;;;;10.04;100.00;98121.97;5035737;28;20410;-76
2021/10/02 01:24:15;;;;;;;;;;;;;;;10.05;100.00;98110.34;5002026;28;19933;-76
2021/10/02 01:27:11;;;;;;;;;;;;;;;9.92;100.00;98103.19;4985345;28;19929;-76
2021/10/02 01:29:40;;;;;;;;;;;;;;;9.52;100.00;98096.31;4964289;28;20012;-76
2021/10/02 01:32:16;;;;;;;;;;;;;;;8.50;100.00;98094.09;4974682;28;20265;-76
2021/10/02 01:35:03;;;;;;;;;;;;;;;9.14;100.00;98110.84;4974510;28;20285;-76
2021/10/02 01:48:43;;;;;;;;;;;;;;;9.83;100.00;98083.50;4974235;28;19926;-76
2021/10/02 01:51:11;;;;;;;;;;;;;;;10.32;100.00;98087.66;4974141;28;20402;-76
2021/10/02 01:53:39;;;;;;;;;;;;;;;10.05;100.00;98078.88;4974290;28;19926;-76
2021/10/02 01:56:07;;;;;;;;;;;;;;;10.08;100.00;98075.22;4958218;28;20429;-76
2021/10/02 01:58:35;;;;;;;;;;;;;;;10.26;100.00;98064.31;4974276;28;19932;-76
2021/10/02 02:01:04;;;;;;;;;;;;;;;9.83;100.00;98056.38;4974179;28;19926;-76
2021/10/02 02:03:33;;;;;;;;;;;;;;;9.74;100.00;98063.84;4974059;28;20018;-76
2021/10/02 02:06:01;;;;;;;;;;;;;;;9.69;100.00;98045.66;5001803;28;20011;-76
2021/10/02 02:08:28;;;;;;;;;;;;;;;9.66;100.00;98046.53;5035170;28;19925;-76
2021/10/02 02:11:04;;;;;;;;;;;;;;;9.68;100.00;98046.84;4985889;28;19970;-76
2021/10/02 02:13:34;;;;;;;;;;;;;;;9.68;100.00;98043.31;5035118;28;20067;-76
2021/10/02 02:16:01;;;;;;;;;;;;;;;9.61;100.00;98040.69;5035202;28;20368;-76
2021/10/02 02:18:53;;;;;;;;;;;;;;;9.72;100.00;98032.81;5017060;28;19926;-76
2021/10/02 02:21:20;;;;;;;;;;;;;;;9.93;100.00;98043.34;5017512;28;19925;-76
2021/10/02 02:23:48;;;;;;;;;;;;;;;10.23;100.00;98034.47;5034859;28;19925;-77
2021/10/02 02:26:15;;;;;;;;;;;;;;;10.40;100.00;98027.56;5017468;28;19932;-76
2021/10/02 02:28:42;;;;;;;;;;;;;;;10.70;100.00;98027.00;5034757;28;19929;-77
2021/10/02 02:31:10;;;;;;;;;;;;;;;10.37;100.00;98006.94;5017291;28;19929;-77
2021/10/02 02:33:38;;;;;;;;;;;;;;;9.78;100.00;98019.88;5034623;28;20383;-76
2021/10/02 02:36:06;;;;;;;;;;;;;;;9.93;100.00;97998.72;5017372;28;20288;-76
2021/10/02 02:38:33;;;;;;;;;;;;;;;10.11;100.00;97994.19;5016571;28;19929;-77
2021/10/02 02:41:00;;;;;;;;;;;;;;;10.21;100.00;98003.44;5034114;28;19932;-76
2021/10/02 02:43:34;;;;;;;;;;;;;;;9.98;100.00;98000.97;5017135;28;19932;-76
2021/10/02 02:46:10;;;;;;;;;;;;;;;10.51;100.00;98000.88;5016979;28;19924;-77
2021/10/02 02:48:58;;;;;;;;;;;;;;;10.43;100.00;97995.97;5000695;28;19925;-76
2021/10/02 02:51:27;;;;;;;;;;;;;;;9.64;100.00;97997.97;5034353;28;19929;-76
2021/10/02 02:54:14;;;;;;;;;;;;;;;9.75;100.00;97998.47;5034413;28;19931;-76
2021/10/02 02:56:46;;;;;;;;;;;;;;;9.70;100.00;97990.63;5000298;28;20400;-76
2021/10/02 02:59:28;;;;;;;;;;;;;;;9.53;100.00;97975.19;5000380;28;20531;-76
2021/10/02 03:01:58;;;;;;;;;;;;;;;9.59;100.00;97967.88;5016787;28;19929;-76
2021/10/02 03:04:29;;;;;;;;;;;;;;;9.44;100.00;97969.47;5034200;28;20015;-76
2021/10/02 03:06:59;;;;;;;;;;;;;;;9.73;100.00;97975.78;5017164;28;20008;-76
2021/10/02 03:09:26;;;;;;;;;;;;;;;9.78;100.00;97972.47;5033847;28;19972;-76
2021/10/02 03:11:55;;;;;;;;;;;;;;;9.69;100.00;97970.34;5016419;28;20004;-76
2021/10/02 03:14:23;;;;;;;;;;;;;;;9.58;100.00;97960.72;5016541;28;19925;-76
2021/10/02 03:16:51;;;;;;;;;;;;;;;9.61;100.00;97962.59;5033794;28;20024;-76
2021/10/02 03:19:18;;;;;;;;;;;;;;;9.70;100.00;97952.38;5033953;28;20460;-76
2021/10/02 03:21:46;;;;;;;;;;;;;;;10.04;100.00;97943.34;5033796;28;19931;-76
2021/10/02 03:24:15;;;;;;;;;;;;;;;9.72;100.00;97937.97;5033753;28;19925;-76
2021/10/02 03:26:43;;;;;;;;;;;;;;;9.96;100.00;97934.44;5016480;28;19929;-76
2021/10/02 03:29:10;;;;;;;;;;;;;;;9.74;100.00;97932.75;5016081;28;19929;-76
2021/10/02 03:31:37;;;;;;;;;;;;;;;9.74;100.00;97929.97;5016245;28;20016;-76
2021/10/02 03:34:05;;;;;;;;;;;;;;;10.15;100.00;97932.66;5016167;28;19925;-77
2021/10/02 03:36:32;;;;;;;;;;;;;;;10.26;100.00;97921.94;5033756;28;20015;-77
2021/10/02 03:38:59;;;;;;;;;;;;;;;10.93;100.00;97920.44;4999281;28;19925;-76
2021/10/02 03:41:26;;;;;;;;;;;;;;;10.71;100.00;97911.22;5015885;28;19925;-77
2021/10/02 03:43:53;;;;;;;;;;;;;;;10.90;100.00;97910.91;5014610;28;19929;-77
2021/10/02 03:46:20;;;;;;;;;;;;;;;10.28;100.00;97908.31;4999182;28;19991;-76
2021/10/02 03:48:47;;;;;;;;;;;;;;;10.33;100.00;97907.75;5033601;28;19929;-76
2021/10/02 03:51:14;;;;;;;;;;;;;;;10.97;100.00;97898.72;5033008;28;20024;-77
2021/10/02 03:53:42;;;;;;;;;;;;;;;11.01;100.00;97888.22;5033181;28;19925;-77
2021/10/02 03:56:11;;;;;;;;;;;;;;;11.46;100.00;97885.72;5015910;28;20265;-76
2021/10/02 03:58:39;;;;;;;;;;;;;;;11.53;100.00;97879.03;5033273;28;19932;-76
2021/10/02 04:01:06;;;;;;;;;;;;;;;11.40;100.00;97879.16;5015785;28;20316;-76
2021/10/02 04:03:33;;;;;;;;;;;;;;;11.33;100.00;97865.41;5015846;28;20268;-77
2021/10/02 04:06:00;;;;;;;;;;;;;;;11.11;100.00;97859.06;5015448;28;19960;-76
2021/10/02 04:08:27;;;;;;;;;;;;;;;11.39;nan;97841.22;5015175;28;20381;-76
2021/10/02 04:10:54;;;;;;;;;;;;;;;11.21;nan;97851.53;5033110;28;19933;-76
2021/10/02 04:13:20;;;;;;;;;;;;;;;10.40;nan;97835.69;5033138;28;19991;-76
2021/10/02 04:15:48;;;;;;;;;;;;;;;11.32;nan;97835.91;5033011;28;19929;-77
2021/10/02 04:18:17;;;;;;;;;;;;;;;11.30;nan;97837.63;5015540;28;19933;-76
2021/10/02 04:20:44;;;;;;;;;;;;;;;11.51;nan;97831.19;5033089;28;19925;-76
2021/10/02 04:23:11;;;;;;;;;;;;;;;11.64;nan;97841.06;5032638;28;19925;-76
2021/10/02 04:25:38;;;;;;;;;;;;;;;11.83;nan;97841.94;5033061;28;20318;-76
2021/10/02 04:28:06;;;;;;;;;;;;;;;12.00;nan;97827.22;4999079;28;20315;-76
2021/10/02 04:30:33;;;;;;;;;;;;;;;11.66;nan;97832.97;5015714;28;20330;-77
2021/10/02 04:33:00;;;;;;;;;;;;;;;11.07;nan;97824.91;5032651;28;20325;-77
2021/10/02 04:35:27;;;;;;;;;;;;;;;11.17;nan;97828.50;5032972;28;19925;-76
2021/10/02 04:37:54;;;;;;;;;;;;;;;11.56;nan;97820.19;5015089;28;20058;-77
2021/10/02 04:40:21;;;;;;;;;;;;;;;11.45;nan;97828.19;5015575;28;20300;-77
2021/10/02 04:42:49;;;;;;;;;;;;;;;11.41;nan;97819.16;5014979;28;20341;-76
2021/10/02 04:45:18;;;;;;;;;;;;;;;11.30;nan;97816.00;5032741;28;19971;-76
2021/10/02 04:47:45;;;;;;;;;;;;;;;10.95;nan;97811.75;5032736;28;19932;-77
2021/10/02 04:50:13;;;;;;;;;;;;;;;11.45;nan;97793.88;5032366;28;19925;-77
2021/10/02 04:52:40;;;;;;;;;;;;;;;11.33;nan;97797.53;5011810;28;19932;-77
2021/10/02 04:55:08;;;;;;;;;;;;;;;10.76;nan;97798.91;5011663;28;19929;-76
2021/10/02 04:57:35;;;;;;;;;;;;;;;11.59;nan;97793.28;5011764;28;19932;-77
2021/10/02 05:00:03;;;;;;;;;;;;;;;11.08;nan;97784.53;4995591;28;19925;-77
2021/10/02 05:02:30;;;;;;;;;;;;;;;11.37;nan;97779.41;5013999;28;19925;-76
2021/10/02 05:04:58;;;;;;;;;;;;;;;11.47;nan;97775.38;5015100;28;19926;-76
2021/10/02 05:07:26;;;;;;;;;;;;;;;11.62;nan;97765.22;5015029;28;20311;-76
2021/10/02 05:09:53;;;;;;;;;;;;;;;10.88;nan;97756.13;5015414;28;19925;-76
2021/10/02 05:12:20;;;;;;;;;;;;;;;11.11;nan;97752.06;5015084;28;19926;-76
2021/10/02 05:14:47;;;;;;;;;;;;;;;11.06;nan;97742.25;5015111;28;19933;-77
2021/10/02 05:17:16;;;;;;;;;;;;;;;11.56;nan;97752.25;5015151;28;19929;-76
2021/10/02 05:19:43;;;;;;;;;;;;;;;11.77;nan;97743.81;5016317;28;19926;-76
2021/10/02 05:22:11;;;;;;;;;;;;;;;11.41;nan;97748.47;5015063;28;19948;-76
2021/10/02 05:24:38;;;;;;;;;;;;;;;10.82;nan;97753.16;5015130;28;19932;-76
2021/10/02 05:27:09;;;;;;;;;;;;;;;11.33;nan;97753.56;5014816;28;20363;-77
2021/10/02 05:29:37;;;;;;;;;;;;;;;11.71;nan;97751.25;5016241;28;19932;-76
2021/10/02 05:32:05;;;;;;;;;;;;;;;11.19;nan;97751.34;5016316;28;19926;-77
2021/10/02 05:34:32;;;;;;;;;;;;;;;11.30;nan;97748.91;5015850;28;19925;-76
2021/10/02 05:37:00;;;;;;;;;;;;;;;11.98;nan;97742.16;5014952;28;20434;-76
2021/10/02 05:39:28;;;;;;;;;;;;;;;11.94;nan;97741.50;5015853;28;19933;-76
2021/10/02 05:41:55;;;;;;;;;;;;;;;12.19;nan;97727.25;5014504;28;19926;-77
2021/10/02 05:44:22;;;;;;;;;;;;;;;12.06;nan;97732.97;5015596;28;19972;-76
2021/10/02 05:46:49;;;;;;;;;;;;;;;12.20;nan;97728.78;5015890;28;20364;-76
2021/10/02 05:49:16;;;;;;;;;;;;;;;11.86;nan;97726.28;5015724;28;19925;-76
2021/10/02 05:51:43;;;;;;;;;;;;;;;11.79;nan;97713.34;5020741;28;19925;-76
2021/10/02 05:54:11;;;;;;;;;;;;;;;12.30;nan;97708.72;5035445;28;19933;-76
2021/10/02 05:56:38;;;;;;;;;;;;;;;12.39;nan;97711.50;5019960;28;19925;-77
2021/10/02 05:59:05;;;;;;;;;;;;;;;12.30;nan;97708.72;5024107;28;19925;-76
2021/10/02 06:01:33;;;;;;;;;;;;;;;11.11;nan;97713.72;5035088;28;19979;-76
2021/10/02 06:04:11;;;;;;;;;;;;;;;12.12;nan;97691.13;5008033;28;19931;-75
2021/10/02 06:06:38;;;;;;;;;;;;;;;12.40;nan;97678.69;5043852;28;19929;-75
2021/10/02 06:09:05;;;;;;;;;;;;;;;12.40;nan;97673.84;5017499;28;19925;-75
2021/10/02 06:11:32;;;;;;;;;;;;;;;12.19;nan;97679.63;5042464;28;20377;-75
2021/10/02 06:14:01;;;;;;;;;;;;;;;12.31;nan;97671.06;5034451;28;19937;-75
2021/10/02 06:16:31;;;;;;;;;;;;;;;12.23;nan;97664.25;5017812;28;19925;-74
2021/10/02 06:18:58;;;;;;;;;;;;;;;11.71;nan;97675.72;5043394;28;19935;-75
2021/10/02 06:21:25;;;;;;;;;;;;;;;12.07;nan;97656.13;5034500;28;19971;-75
2021/10/02 06:23:58;;;;;;;;;;;;;;;12.11;nan;97648.38;5000700;28;19926;-75
2021/10/02 06:26:29;;;;;;;;;;;;;;;11.86;nan;97640.28;5034670;28;19925;-75
2021/10/02 06:28:57;;;;;;;;;;;;;;;11.70;nan;97637.78;5017100;28;19925;-75
2021/10/02 06:31:24;;;;;;;;;;;;;;;11.70;nan;97621.00;5034455;28;19925;-75
2021/10/02 06:33:51;;;;;;;;;;;;;;;11.27;nan;97620.44;5034213;28;19925;-75
2021/10/02 06:36:18;;;;;;;;;;;;;;;11.47;nan;97618.75;5017062;28;19974;-74
2021/10/02 06:38:45;;;;;;;;;;;;;;;11.85;nan;97621.94;5034179;28;19925;-75
2021/10/02 06:41:12;;;;;;;;;;;;;;;11.87;nan;97619.47;5016735;28;19975;-75
2021/10/02 06:43:39;;;;;;;;;;;;;;;12.28;nan;97601.97;5034133;28;20381;-75
2021/10/02 06:46:06;;;;;;;;;;;;;;;11.38;nan;97593.59;5034159;28;19925;-75
2021/10/02 06:48:34;;;;;;;;;;;;;;;11.52;nan;97586.59;5016329;28;19933;-75
2021/10/02 06:51:01;;;;;;;;;;;;;;;11.51;nan;97591.41;5016636;28;19925;-75
2021/10/02 06:53:28;;;;;;;;;;;;;;;11.42;nan;97579.47;5033552;28;19929;-75
2021/10/02 06:55:55;;;;;;;;;;;;;;;11.67;nan;97588.38;5034355;28;20430;-74
2021/10/02 06:58:22;;;;;;;;;;;;;;;11.11;nan;97579.56;5034313;28;19925;-79
2021/10/02 07:00:49;;;;;;;;;;;;;;;11.49;nan;97582.72;5016669;28;19933;-78
2021/10/02 07:03:16;;;;;;;;;;;;;;;11.78;nan;97576.69;5000518;28;19932;-78
2021/10/02 07:05:43;;;;;;;;;;;;;;;11.85;nan;97579.97;5016842;28;19925;-78
2021/10/02 07:08:11;;;;;;;;;;;;;;;11.65;nan;97590.06;5016877;28;19925;-75
2021/10/02 07:10:38;;;;;;;;;;;;;;;11.45;nan;97576.50;5016208;28;19929;-74
2021/10/02 07:13:08;;;;;;;;;;;;;;;11.57;nan;97578.38;5016450;28;19929;-76
2021/10/02 07:15:35;;;;;;;;;;;;;;;11.92;nan;97582.44;5029641;28;19931;-77
2021/10/02 07:18:03;;;;;;;;;;;;;;;11.91;nan;97588.50;5013971;28;19925;-77
2021/10/02 07:20:30;;;;;;;;;;;;;;;12.03;nan;97582.75;5000989;28;19931;-77
2021/10/02 07:22:57;;;;;;;;;;;;;;;11.34;nan;97569.81;5029363;28;19931;-77
2021/10/02 07:25:25;;;;;;;;;;;;;;;11.66;nan;97570.00;5029556;28;19933;-76
2021/10/02 07:27:52;;;;;;;;;;;;;;;11.77;nan;97561.94;5031537;28;19947;-77
2021/10/02 07:30:20;;;;;;;;;;;;;;;11.90;nan;97564.56;5016305;28;19925;-76
2021/10/02 07:32:47;;;;;;;;;;;;;;;11.74;nan;97548.13;5011698;28;19925;-76
2021/10/02 07:35:14;;;;;;;;;;;;;;;12.19;nan;97548.78;5011658;28;20402;-76
2021/10/02 07:37:41;;;;;;;;;;;;;;;12.02;nan;97544.81;5029770;28;19994;-76
2021/10/02 07:40:09;;;;;;;;;;;;;;;11.98;nan;97544.19;5029806;28;19967;-76
2021/10/02 07:42:37;;;;;;;;;;;;;;;11.73;nan;97536.13;5029667;28;19929;-76
2021/10/02 07:45:06;;;;;;;;;;;;;;;11.99;nan;97523.34;4996118;28;19932;-76
2021/10/02 07:47:37;;;;;;;;;;;;;;;12.10;nan;97525.66;5029865;28;19925;-77
2021/10/02 07:50:06;;;;;;;;;;;;;;;11.99;nan;97509.38;5029213;28;20343;-76
2021/10/02 07:52:33;;;;;;;;;;;;;;;12.13;nan;97507.94;5031422;28;19925;-76
2021/10/02 07:55:04;;;;;;;;;;;;;;;12.04;nan;97494.72;5019087;28;20248;-76
2021/10/02 07:57:31;;;;;;;;;;;;;;;11.90;nan;97489.78;5028327;28;19931;-78
2021/10/02 07:59:58;;;;;;;;;;;;;;;12.16;nan;97485.34;5041865;28;19929;-79
2021/10/02 08:02:27;;;;;;;;;;;;;;;11.86;nan;97483.56;5015133;28;19933;-81
2021/10/02 08:04:54;;;;;;;;;;;;;;;12.22;nan;97480.66;5022891;28;19924;-80
2021/10/02 08:07:22;;;;;;;;;;;;;;;12.31;nan;97463.06;4998203;28;19929;-76
2021/10/02 08:09:56;;;;;;;;;;;;;;;12.21;nan;97464.34;5001079;28;19925;-76
2021/10/02 08:12:26;;;;;;;;;;;;;;;12.43;nan;97454.44;4993460;28;19933;-75
2021/10/02 08:14:53;;;;;;;;;;;;;;;12.27;nan;97452.03;4992483;28;19925;-75
2021/10/02 08:17:22;;;;;;;;;;;;;;;12.39;nan;97456.63;5009415;28;19924;-75
2021/10/02 08:19:55;;;;;;;;;;;;;;;12.18;nan;97429.66;5042719;28;19933;-78
2021/10/02 08:22:23;;;;;;;;;;;;;;;12.93;nan;97426.75;5031158;28;19929;-77
2021/10/02 08:24:51;;;;;;;;;;;;;;;12.53;nan;97421.56;5014860;28;19929;-77
2021/10/02 08:27:21;;;;;;;;;;;;;;;12.65;nan;97415.72;5014994;28;19925;-77
2021/10/02 08:29:50;;;;;;;;;;;;;;;12.21;nan;97397.91;4999084;28;19929;-79
2021/10/02 08:32:17;;;;;;;;;;;;;;;12.51;nan;97399.63;5015115;28;19925;-78
2021/10/02 08:34:44;;;;;;;;;;;;;;;12.08;nan;97400.16;5032402;28;20308;-77
2021/10/02 08:37:12;;;;;;;;;;;;;;;11.96;nan;97400.38;5033659;28;19932;-77
2021/10/02 08:39:39;;;;;;;;;;;;;;;12.02;nan;97356.50;5036934;28;19925;-77
2021/10/02 08:42:07;;;;;;;;;;;;;;;12.36;nan;97393.16;5019306;28;19925;-77
2021/10/02 08:44:35;;;;;;;;;;;;;;;12.36;nan;97390.38;5018992;28;19931;-77
2021/10/02 08:47:03;;;;;;;;;;;;;;;12.65;nan;97370.91;5036615;28;19925;-77
2021/10/02 08:49:30;;;;;;;;;;;;;;;12.35;nan;97363.63;5002673;28;19925;-77
2021/10/02 08:51:58;;;;;;;;;;;;;;;12.38;nan;97368.28;5036478;28;19925;-77
2021/10/02 08:54:26;;;;;;;;;;;;;;;12.27;nan;97379.22;5036761;28;19925;-77
2021/10/02 08:56:54;;;;;;;;;;;;;;;12.41;nan;97361.72;5002422;28;19929;-77
2021/10/02 08:59:21;;;;;;;;;;;;;;;12.77;nan;97378.28;5036645;28;19925;-77
2021/10/02 09:01:49;;;;;;;;;;;;;;;12.97;nan;97354.44;5018749;28;19968;-77
2021/10/02 09:04:17;;;;;;;;;;;;;;;13.03;nan;97335.75;5018762;28;19925;-77
2021/10/02 09:06:45;;;;;;;;;;;;;;;12.56;nan;97331.75;5036478;28;19935;-77
2021/10/02 09:09:13;;;;;;;;;;;;;;;12.67;nan;97329.19;5036425;28;20327;-76
2021/10/02 09:11:40;;;;;;;;;;;;;;;12.24;nan;97304.56;5002330;28;20466;-77
2021/10/02 09:14:07;;;;;;;;;;;;;;;11.93;nan;97312.53;5018714;28;19925;-76
2021/10/02 09:16:34;;;;;;;;;;;;;;;12.45;nan;97283.09;5036304;28;19925;-77
2021/10/02 09:19:01;;;;;;;;;;;;;;;12.40;nan;97281.75;5018226;28;19931;-76
2021/10/02 09:21:28;;;;;;;;;;;;;;;13.26;nan;97285.22;5036320;28;19925;-77
2021/10/02 09:23:55;;;;;;;;;;;;;;;12.87;nan;97271.72;5036112;28;19963;-77
2021/10/02 09:26:42;;;;;;;;;;;;;;;13.15;nan;97253.38;5036111;28;19979;-77
2021/10/02 09:29:09;;;;;;;;;;;;;;;12.72;nan;97252.09;5036116;28;20369;-77
2021/10/02 09:31:38;;;;;;;;;;;;;;;12.82;nan;97230.34;5036099;28;19959;-77
2021/10/02 09:34:05;;;;;;;;;;;;;;;11.99;nan;97274.25;5001783;28;19925;-77
2021/10/02 09:36:44;;;;;;;;;;;;;;;12.82;nan;97233.13;5036083;28;20360;-77
2021/10/02 09:39:11;;;;;;;;;;;;;;;13.15;nan;97212.09;5018321;28;20275;-77
2021/10/02 09:41:46;;;;;;;;;;;;;;;12.78;nan;97197.69;5035887;28;19925;-77
2021/10/02 09:44:19;;;;;;;;;;;;;;;13.16;nan;97201.66;5018008;28;20388;-77
2021/10/02 09:46:46;;;;;;;;;;;;;;;13.71;nan;97202.50;5001950;28;19939;-77
2021/10/02 09:49:13;;;;;;;;;;;;;;;13.21;nan;97198.19;5001242;28;20384;-76
2021/10/02 09:51:42;;;;;;;;;;;;;;;13.28;nan;97206.19;5035139;28;20415;-76
2021/10/02 09:54:37;;;;;;;;;;;;;;;13.39;nan;97212.00;5020220;28;20380;-77
2021/10/02 09:57:10;;;;;;;;;;;;;;;12.88;nan;97186.38;5017680;28;20396;-76
2021/10/02 09:59:38;;;;;;;;;;;;;;;13.42;nan;97182.97;5001798;28;19935;-76
2021/10/02 10:02:15;;;;;;;;;;;;;;;12.89;nan;97182.31;5035201;28;19925;-78
2021/10/02 10:04:52;;;;;;;;;;;;;;;13.41;nan;97176.56;5001685;28;19925;-78
2021/10/02 10:07:20;;;;;;;;;;;;;;;13.29;nan;97165.66;5035304;28;19929;-78
2021/10/02 10:10:00;;;;;;;;;;;;;;;13.03;nan;97187.16;5034692;28;19925;-78
2021/10/02 10:12:28;;;;;;;;;;;;;;;12.88;nan;97159.13;5033960;28;19925;-78
2021/10/02 10:14:55;;;;;;;;;;;;;;;12.30;nan;97145.84;5000173;28;19929;-78
2021/10/02 10:17:23;;;;;;;;;;;;;;;13.43;nan;97156.47;5033832;28;19925;-78
2021/10/02 10:20:03;;;;;;;;;;;;;;;13.29;nan;97149.63;5034239;28;20308;-78
2021/10/02 10:22:31;;;;;;;;;;;;;;;12.55;nan;97158.53;5034011;28;20425;-78
2021/10/02 10:24:59;;;;;;;;;;;;;;;11.96;nan;97152.06;5033967;28;19925;-78
2021/10/02 10:27:32;;;;;;;;;;;;;;;12.40;nan;97129.75;5016314;28;20296;-78
2021/10/02 10:30:05;;;;;;;;;;;;;;;12.24;nan;97153.38;5016363;28;19978;-78
2021/10/02 10:32:33;;;;;;;;;;;;;;;12.21;nan;97145.16;5033615;28;20277;-78
2021/10/02 10:35:00;;;;;;;;;;;;;;;11.94;nan;97137.00;5016395;28;19929;-78
2021/10/02 10:37:27;;;;;;;;;;;;;;;12.67;nan;97135.84;5016274;28;20295;-78
2021/10/02 10:39:57;;;;;;;;;;;;;;;13.09;nan;97117.94;5033689;28;20435;-78
2021/10/02 10:42:27;;;;;;;;;;;;;;;13.26;nan;97127.38;5016352;28;19924;-79
2021/10/02 10:44:57;;;;;;;;;;;;;;;12.80;nan;97104.72;5015923;28;19994;-79
2021/10/02 10:47:25;;;;;;;;;;;;;;;12.45;nan;97099.03;5016033;28;19995;-79
2021/10/02 10:49:52;;;;;;;;;;;;;;;13.05;nan;97109.75;5015605;28;20295;-79
2021/10/02 10:52:22;;;;;;;;;;;;;;;11.57;nan;97102.13;5032429;28;20146;-79
2021/10/02 10:54:51;;;;;;;;;;;;;;;12.40;nan;97094.09;5016316;28;19936;-79
2021/10/02 10:57:31;;;;;;;;;;;;;;;12.26;nan;97075.28;4983413;28;19947;-79
2021/10/02 10:59:59;;;;;;;;;;;;;;;12.83;nan;97086.94;4998623;28;19963;-79
2021/10/02 11:02:44;;;;;;;;;;;;;;;12.62;nan;97054.50;5015677;28;19925;-79
2021/10/02 11:05:30;;;;;;;;;;;;;;;12.02;nan;97054.22;5015676;28;19925;-79
2021/10/02 11:07:58;;;;;;;;;;;;;;;12.43;nan;97051.13;5033326;28;19925;-79
2021/10/02 11:10:45;;;;;;;;;;;;;;;12.43;nan;97039.19;4999514;28;19932;-79
2021/10/02 11:13:12;;;;;;;;;;;;;;;12.53;nan;97044.19;5018721;28;19925;-79
2021/10/02 11:15:40;;;;;;;;;;;;;;;12.38;nan;97045.44;5032218;28;19929;-79
2021/10/02 11:18:26;;;;;;;;;;;;;;;12.56;nan;97012.41;5032413;28;19932;-79
2021/10/02 11:21:03;;;;;;;;;;;;;;;12.21;nan;97014.38;5032818;28;19925;-79
2021/10/02 11:23:40;;;;;;;;;;;;;;;12.71;nan;97010.34;4983005;28;19933;-79
2021/10/02 11:26:07;;;;;;;;;;;;;;;13.01;nan;97004.69;5032855;28;20278;-79
2021/10/02 11:28:35;;;;;;;;;;;;;;;12.88;nan;96981.78;5015183;28;20006;-79
2021/10/02 11:31:11;;;;;;;;;;;;;;;12.81;nan;96973.78;4998800;28;19929;-79
2021/10/02 11:33:43;;;;;;;;;;;;;;;13.18;nan;96970.00;5032882;28;19925;-79
2021/10/02 11:36:31;;;;;;;;;;;;;;;13.22;nan;96953.75;5015231;28;19928;-79
2021/10/02 11:39:11;;;;;;;;;;;;;;;13.04;nan;96959.59;5031779;28;19925;-79
2021/10/02 11:41:46;;;;;;;;;;;;;;;12.58;nan;96942.66;5032868;28;19933;-79
2021/10/02 11:44:18;;;;;;;;;;;;;;;12.57;nan;96932.69;5032402;28;19970;-79
2021/10/02 11:46:46;;;;;;;;;;;;;;;12.86;nan;96925.47;5015433;28;19982;-79
2021/10/02 11:49:18;;;;;;;;;;;;;;;13.16;nan;96922.03;5015235;28;19925;-79
2021/10/02 11:52:04;;;;;;;;;;;;;;;12.95;nan;96911.31;5032237;28;19947;-79
2021/10/02 11:54:31;;;;;;;;;;;;;;;13.23;nan;96915.25;5032536;28;19929;-79
2021/10/02 11:57:14;;;;;;;;;;;;;;;12.99;nan;96900.66;5014854;28;20407;-79
2021/10/02 11:59:43;;;;;;;;;;;;;;;13.05;nan;96909.94;5015023;28;19925;-79
2021/10/02 12:02:11;;;;;;;;;;;;;;;13.22;nan;96896.91;5014900;28;19929;-79
2021/10/02 12:04:38;;;;;;;;;;;;;;;13.29;nan;96899.25;5015029;28;19931;-79
2021/10/02 12:07:06;;;;;;;;;;;;;;;12.67;nan;96872.50;5032056;28;20395;-79
2021/10/02 12:09:33;;;;;;;;;;;;;;;13.35;nan;96883.25;5032612;28;19932;-79
2021/10/02 12:12:00;;;;;;;;;;;;;;;13.06;nan;96855.41;5016416;28;19937;-79
2021/10/02 12:14:28;;;;;;;;;;;;;;;12.95;nan;96849.66;5036613;28;19958;-79
2021/10/02 12:17:02;;;;;;;;;;;;;;;13.18;nan;96846.63;5036372;28;19925;-79
2021/10/02 12:19:31;;;;;;;;;;;;;;;12.80;nan;96837.75;5036459;28;19954;-79
2021/10/02 12:21:58;;;;;;;;;;;;;;;12.92;nan;96820.56;5018569;28;19925;-79
2021/10/02 12:24:26;;;;;;;;;;;;;;;13.42;nan;96809.91;5036377;28;19931;-79
2021/10/02 12:27:04;;;;;;;;;;;;;;;12.48;nan;96818.00;5036533;28;19931;-79
2021/10/02 12:29:33;;;;;;;;;;;;;;;12.45;nan;96802.19;5002314;28;19929;-79
2021/10/02 12:32:00;;;;;;;;;;;;;;;12.66;nan;96798.09;5036694;28;20392;-79
2021/10/02 12:34:30;;;;;;;;;;;;;;;13.35;nan;96788.69;5035968;28;19925;-79
2021/10/02 12:36:58;;;;;;;;;;;;;;;12.57;nan;96777.91;5018971;28;19979;-79
2021/10/02 12:39:27;;;;;;;;;;;;;;;13.14;nan;96772.41;5035898;28;19925;-79
2021/10/02 12:41:55;;;;;;;;;;;;;;;12.87;nan;96761.66;5018221;28;19932;-79
2021/10/02 12:44:24;;;;;;;;;;;;;;;12.69;nan;96755.09;5018415;28;19925;-79
2021/10/02 12:46:53;;;;;;;;;;;;;;;13.23;nan;96764.63;5002324;28;19925;-79
2021/10/02 12:49:20;;;;;;;;;;;;;;;13.08;nan;96735.16;5018280;28;20554;-79
2021/10/02 12:51:48;;;;;;;;;;;;;;;12.94;nan;96724.78;5035344;28;19932;-79
2021/10/02 12:54:20;;;;;;;;;;;;;;;13.44;nan;96718.41;5035757;28;19929;-79
2021/10/02 12:57:10;;;;;;;;;;;;;;;13.57;nan;96712.38;5035536;28;19957;-79
2021/10/02 12:59:49;;;;;;;;;;;;;;;13.24;nan;96700.91;5035963;28;19931;-79
2021/10/02 13:02:17;;;;;;;;;;;;;;;13.45;nan;96691.88;5018048;28;19935;-79
2021/10/02 13:04:44;;;;;;;;;;;;;;;13.32;nan;96682.34;5035509;28;19925;-79
2021/10/02 13:07:20;;;;;;;;;;;;;;;13.53;nan;96664.91;5035298;28;19925;-79
2021/10/02 13:09:59;;;;;;;;;;;;;;;13.70;nan;96650.97;5017782;28;20430;-79
2021/10/02 13:12:33;;;;;;;;;;;;;;;14.03;nan;96668.00;5035349;28;19947;-79
2021/10/02 13:15:02;;;;;;;;;;;;;;;13.03;nan;96648.97;5017919;28;19975;-79
2021/10/02 13:17:29;;;;;;;;;;;;;;;13.26;nan;96639.47;5017739;28;19925;-79
2021/10/02 13:20:04;;;;;;;;;;;;;;;13.40;nan;96642.13;5017607;28;19925;-79
2021/10/02 13:22:39;;;;;;;;;;;;;;;13.59;nan;96628.47;5034553;28;19994;-78
2021/10/02 13:25:07;;;;;;;;;;;;;;;13.60;nan;96627.22;5017326;28;19926;-79
2021/10/02 13:27:36;;;;;;;;;;;;;;;13.99;nan;96628.16;5035031;28;20307;-79
2021/10/02 13:30:10;;;;;;;;;;;;;;;13.98;nan;96615.41;5001563;28;19929;-79
2021/10/02 13:32:37;;;;;;;;;;;;;;;14.34;nan;96608.94;5000785;28;19947;-79
2021/10/02 13:35:06;;;;;;;;;;;;;;;14.06;nan;96594.00;5033927;28;19929;-79
2021/10/02 13:37:34;;;;;;;;;;;;;;;13.97;nan;96592.19;5034996;28;19925;-79
2021/10/02 13:40:04;;;;;;;;;;;;;;;13.91;nan;96590.63;5017224;28;19933;-79
2021/10/02 13:42:32;;;;;;;;;;;;;;;14.09;nan;96570.50;5034995;28;19929;-79
2021/10/02 13:44:59;;;;;;;;;;;;;;;14.37;nan;96557.34;5034764;28;19925;-79
2021/10/02 13:47:27;;;;;;;;;;;;;;;14.71;nan;96567.34;5000374;28;20498;-79
2021/10/02 13:49:54;;;;;;;;;;;;;;;14.20;nan;96548.09;5000511;28;19932;-79
2021/10/02 13:52:22;;;;;;;;;;;;;;;14.59;nan;96557.38;5017080;28;20299;-79
2021/10/02 13:54:50;;;;;;;;;;;;;;;14.73;nan;96542.31;5017066;28;19932;-79
2021/10/02 13:57:17;;;;;;;;;;;;;;;14.05;nan;96541.94;5034413;28;20441;-79
2021/10/02 13:59:45;;;;;;;;;;;;;;;14.17;nan;96544.25;5000233;28;20388;-79
2021/10/02 14:02:13;;;;;;;;;;;;;;;14.51;nan;96533.09;4981181;28;20376;-79
2021/10/02 14:04:40;;;;;;;;;;;;;;;14.83;nan;96537.94;5007244;28;20312;-79
2021/10/02 14:07:08;;;;;;;;;;;;;;;14.85;nan;96529.78;5016804;28;20321;-79
2021/10/02 14:09:35;;;;;;;;;;;;;;;14.95;nan;96524.66;5016597;28;20399;-79
2021/10/02 14:12:02;;;;;;;;;;;;;;;14.42;nan;96512.41;5016402;28;19929;-79